Terminal Aerodrome Forecast
Issued by NWS

Home | Current Version | Previous Version | Text Only | Print | Product List | Glossary On
Versions: 1 2 3 4 5 6 7 8 9 10 11 12 13 14 15 16 17 18 19 20 21 22 23 24 25 26 27
182
FTUS41 KPBZ 302320
TAFFKL
TAF
KFKL 302320Z 3100/3124 11012G20KT P6SM RA OVC035 WS020/20045KT
      TEMPO 3100/3103 3SM -TSRA BKN025CB
     FM310500 13009KT 3SM -RA OVC025 WS020/20045KT
     FM311200 14012G18KT 3SM -RA OVC008
      AMD LTD TO CLD VIS AND WIND=

USA.gov is the U.S. government's official web portal to all federal, state and local government web resources and services.